Flight Track Log - Related Links

Times and Time Zones

All times are in EDT time to prevent confusion due to time zone crossing. See the UAL1035 flight status page for this flight to view local times or setup timezone preferences in your user account.

Time Position Orientation Groundspeed Altitude Reporting Facility
EDT Latitude Longitude Course Direction KTS MPH feet Rate Location/Type
Sat 06:47:29 PM 29.9592 -95.3392 156° South 165 190 800  Level Houston Center
Sat 06:48:42 PM 29.9217 -95.2736 123° Southeast 220 253 3,500 2,188 Climbing Houston Center
Sat 06:49:05 PM 29.9128 -95.2558 120° Southeast 213 245 4,300 2,656 Climbing Houston Center
Sat 06:49:43 PM 29.8819 -95.2086 127° Southeast 265 305 6,200 2,852 Climbing Houston Center
Sat 06:50:00 PM 29.6646 -95.1194 150° Southeast  Level Estimated
Sat 06:50:06 PM 29.8681 -95.1878 128° Southeast 260 299 7,200  Level Houston Center
Sat 06:51:00 PM 29.5579 -95.0457 147° Southeast  Level Estimated
Sat 06:51:07 PM 29.8047 -95.1356 144° Southeast 289 333 9,900  Level Houston Center
Sat 06:52:00 PM 29.4511 -94.9722 156° South  Level Estimated
Sat 06:52:08 PM 29.7233 -95.0950 157° South 307 353 11,700  Level Houston Center
Sat 06:53:10 PM 29.6303 -95.0497 157° South 347 399 14,500 2,488 Climbing Houston Center
Sat 06:54:11 PM 29.5344 -94.9997 156° South 367 422 16,800 2,262 Climbing Houston Center
Sat 06:55:12 PM 29.4353 -94.9506 157° South 382 440 19,100 2,115 Climbing Houston Center
Sat 06:56:13 PM 29.3336 -94.8997 156° South 393 452 21,100 1,854 Climbing Houston Center
Sat 06:57:15 PM 29.2308 -94.8425 154° Southeast 408 470 22,900 1,707 Climbing Houston Center
Sat 06:58:16 PM 29.1319 -94.7739 149° Southeast 415 478 24,600 1,574 Climbing Houston Center
Sat 06:59:17 PM 29.0292 -94.7044 149° Southeast 425 489 26,100 1,561 Climbing Houston Center
Sat 07:00:19 PM 28.9017 -94.6183 149° Southeast 440 506 27,800 1,463 Climbing Houston Center
Sat 07:01:20 PM 28.7936 -94.5447 149° Southeast 450 518 29,100 1,328 Climbing Houston Center
Sat 07:02:21 PM 28.6831 -94.4719 150° Southeast 458 527 30,500 1,366 Climbing Houston Center
Sat 07:03:23 PM 28.5733 -94.3981 149° Southeast 459 528 31,900 1,220 Climbing Houston Center
Sat 07:04:24 PM 28.4636 -94.3244 149° Southeast 459 528 33,000 885 Climbing Houston Center
Sat 07:05:25 PM 28.3514 -94.2494 150° Southeast 467 537 33,700 780 Climbing Houston Center
Sat 07:06:27 PM 28.2372 -94.1728 149° Southeast 475 547 34,600 634 Climbing Houston Center
Sat 07:07:28 PM 28.1256 -94.0903 147° Southeast 479 551 35,000 197 Climbing Houston Center
Sat 07:08:29 PM 28.0250 -93.9897 139° Southeast 482 555 35,000  Level Houston Center
Sat 07:09:31 PM 27.9011 -93.8736 140° Southeast 482 555 35,000  Level Houston Center
Sat 07:10:32 PM 27.7983 -93.7744 140° Southeast 486 559 35,000  Level Houston Center
Sat 07:11:33 PM 27.6944 -93.6769 140° Southeast 486 559 35,000  Level Houston Center
Sat 07:12:35 PM 27.5900 -93.5781 140° Southeast 489 563 35,000  Level Houston Center
Sat 07:13:36 PM 27.4844 -93.4806 141° Southeast 490 564 35,000  Level Houston Center
Sat 07:14:37 PM 27.3800 -93.3794 139° Southeast 491 565 35,000  Level Houston Center
Sat 07:15:39 PM 27.2753 -93.2811 140° Southeast 492 566 35,000  Level Houston Center
Sat 07:16:40 PM 27.1711 -93.1811 139° Southeast 493 567 35,000  Level Houston Center
Sat 07:17:41 PM 27.0681 -93.0800 139° Southeast 492 566 35,000  Level Houston Center
Sat 07:18:43 PM 26.9372 -92.9658 142° Southeast 494 568 35,000  Level Houston Center
Sat 07:19:44 PM 26.8308 -92.8722 142° Southeast 492 566 35,000 -49 Level Houston Center
Sat 07:20:45 PM 26.7114 -92.7742 144° Southeast 491 565 34,900 -49 Descending Houston Center
Sat 07:21:46 PM 26.5983 -92.7125 154° Southeast 495 570 34,900 49 Level Houston Center
Sat 07:22:48 PM 26.4797 -92.6378 151° Southeast 492 566 35,000 97 Climbing Houston Center
Sat 07:24:00 PM 26.3530 -92.5515 149° Southeast  Level FlightAware Approximate
Sat 07:31:00 PM 25.6110 -92.0553 150° Southeast  Level FlightAware Approximate
Sat 07:32:00 PM 25.5043 -91.9861 150° Southeast  Level FlightAware Approximate
Sat 07:33:00 PM 25.3997 -91.9130 148° Southeast  Level FlightAware Approximate
Sat 07:34:00 PM 25.2936 -91.8428 151° Southeast  Level FlightAware Approximate
Sat 07:35:00 PM 25.1849 -91.7776 152° Southeast  Level FlightAware Approximate
Sat 07:36:00 PM 25.0781 -91.7088 149° Southeast  Level FlightAware Approximate
Sat 07:37:00 PM 24.9716 -91.6393 149° Southeast  Level FlightAware Approximate
Sat 07:38:00 PM 24.8651 -91.5700 149° Southeast  Level FlightAware Approximate
Sat 07:39:00 PM 24.7586 -91.5008 149° Southeast  Level FlightAware Approximate
Sat 07:40:00 PM 24.6521 -91.4317 149° Southeast  Level FlightAware Approximate
Sat 07:41:00 PM 24.5455 -91.3627 150° Southeast  Level FlightAware Approximate
Sat 07:42:00 PM 24.4351 -91.3018 156° South  Level FlightAware Approximate
Sat 07:43:00 PM 24.3220 -91.2470 156° South  Level FlightAware Approximate
Sat 07:44:00 PM 24.2088 -91.1922 156° South  Level FlightAware Approximate
Sat 07:45:00 PM 24.0957 -91.1376 156° South  Level FlightAware Approximate
Sat 07:46:00 PM 23.9825 -91.0830 156° South  Level FlightAware Approximate
Sat 07:47:00 PM 23.8693 -91.0285 156° South  Level FlightAware Approximate
Sat 07:48:00 PM 23.7560 -90.9742 156° South  Level FlightAware Approximate
Sat 07:49:00 PM 23.6428 -90.9199 156° South  Level FlightAware Approximate
Sat 07:50:00 PM 23.5295 -90.8657 156° South  Level FlightAware Approximate
Sat 07:51:00 PM 23.4163 -90.8116 156° South  Level FlightAware Approximate
Sat 07:52:00 PM 23.3030 -90.7576 156° South  Level FlightAware Approximate
Sat 07:53:00 PM 23.1896 -90.7037 156° South  Level FlightAware Approximate
Sat 07:54:00 PM 23.0763 -90.6499 156° South  Level FlightAware Approximate
Sat 07:55:00 PM 22.9629 -90.5962 156° South  Level FlightAware Approximate
Sat 07:56:00 PM 22.8496 -90.5425 156° South  Level FlightAware Approximate
Sat 07:57:00 PM 22.7362 -90.4890 156° South  Level FlightAware Approximate
Sat 07:58:00 PM 22.6228 -90.4355 156° South  Level FlightAware Approximate
Sat 07:59:00 PM 22.5093 -90.3822 157° South  Level FlightAware Approximate
Sat 08:00:00 PM 22.3959 -90.3289 157° South  Level FlightAware Approximate
Sat 08:01:00 PM 22.2824 -90.2757 157° South  Level FlightAware Approximate
Sat 08:02:00 PM 22.1690 -90.2226 157° South  Level FlightAware Approximate
Sat 08:03:00 PM 22.0555 -90.1696 157° South  Level FlightAware Approximate
Sat 08:04:00 PM 21.9419 -90.1166 157° South  Level FlightAware Approximate
Sat 08:05:00 PM 21.8284 -90.0638 157° South  Level FlightAware Approximate
Sat 08:06:00 PM 21.7149 -90.0110 157° South  Level FlightAware Approximate
Sat 08:07:00 PM 21.6013 -89.9583 157° South  Level FlightAware Approximate
Sat 08:08:00 PM 21.4877 -89.9057 157° South  Level FlightAware Approximate
Sat 08:09:00 PM 21.3742 -89.8531 157° South  Level FlightAware Approximate
Sat 08:10:00 PM 21.2606 -89.8007 157° South  Level FlightAware Approximate
Sat 08:11:00 PM 21.1470 -89.7483 157° South  Level FlightAware Approximate
Sat 08:12:00 PM 21.0333 -89.6960 157° South  Level FlightAware Approximate
Sat 08:13:00 PM 20.9195 -89.6442 159° South  Level FlightAware Approximate
Sat 08:14:00 PM 20.8042 -89.5964 159° South  Level FlightAware Approximate
Sat 08:15:00 PM 20.6889 -89.5487 159° South  Level FlightAware Approximate
Sat 08:16:00 PM 20.5735 -89.5010 159° South  Level FlightAware Approximate
Sat 08:17:00 PM 20.4582 -89.4534 159° South  Level FlightAware Approximate
Sat 08:18:00 PM 20.3424 -89.4069 159° South  Level FlightAware Approximate
Sat 08:19:00 PM 20.2266 -89.3606 159° South  Level FlightAware Approximate
Sat 08:20:00 PM 20.1108 -89.3144 159° South  Level FlightAware Approximate
Sat 08:21:00 PM 19.9950 -89.2683 159° South  Level FlightAware Approximate
Sat 08:22:00 PM 19.8791 -89.2222 159° South  Level FlightAware Approximate
Sat 08:23:00 PM 19.7633 -89.1762 160° South  Level FlightAware Approximate
Sat 08:24:00 PM 19.6474 -89.1302 160° South  Level FlightAware Approximate
Sat 08:25:00 PM 19.5316 -89.0843 160° South  Level FlightAware Approximate
Sat 08:26:00 PM 19.4157 -89.0385 160° South  Level FlightAware Approximate
Sat 08:27:00 PM 19.2998 -88.9928 160° South  Level FlightAware Approximate
Sat 08:28:00 PM 19.1839 -88.9471 160° South  Level FlightAware Approximate
Sat 08:29:00 PM 19.0680 -88.9014 160° South  Level FlightAware Approximate
Sat 08:30:00 PM 18.9520 -88.8559 160° South  Level FlightAware Approximate
Sat 08:31:00 PM 18.8361 -88.8104 160° South  Level FlightAware Approximate
Sat 08:32:00 PM 18.7202 -88.7650 160° South  Level FlightAware Approximate
Sat 08:33:00 PM 18.6042 -88.7196 160° South  Level FlightAware Approximate
Sat 08:34:00 PM 18.4882 -88.6743 160° South  Level FlightAware Approximate
Sat 08:35:00 PM 18.3727 -88.6279 154° Southeast  Level FlightAware Approximate
Sat 08:36:00 PM 18.2617 -88.5705 154° Southeast  Level FlightAware Approximate
Sat 08:37:00 PM 18.1506 -88.5133 154° Southeast  Level FlightAware Approximate
Sat 08:38:00 PM 18.0395 -88.4561 154° Southeast  Level FlightAware Approximate
Sat 08:39:00 PM 17.9284 -88.3990 154° Southeast  Level FlightAware Approximate
Sat 08:40:00 PM 17.8173 -88.3420 154° Southeast  Level FlightAware Approximate
Sat 08:41:00 PM 17.7062 -88.2850 154° Southeast  Level FlightAware Approximate
Sat 08:42:00 PM 17.5950 -88.2281 154° Southeast  Level FlightAware Approximate
Sat 08:43:00 PM 17.4838 -88.1713 154° Southeast  Level FlightAware Approximate
Sat 08:44:00 PM 17.3727 -88.1145 154° Southeast  Level FlightAware Approximate
Sat 08:45:00 PM 17.2614 -88.0578 154° Southeast  Level FlightAware Approximate
Sat 08:46:00 PM 17.1502 -88.0012 154° Southeast  Level FlightAware Approximate
Sat 08:47:00 PM 17.0390 -87.9447 154° Southeast  Level FlightAware Approximate
Sat 08:48:00 PM 16.9278 -87.8880 154° Southeast  Level FlightAware Approximate
Sat 08:49:00 PM 16.8155 -87.8309 154° Southeast  Level FlightAware Approximate
Sat 08:50:00 PM 16.7032 -87.7738 154° Southeast  Level FlightAware Approximate
Sat 08:51:00 PM 16.5909 -87.7167 154° Southeast  Level FlightAware Approximate
Sat 08:52:00 PM 16.4786 -87.6597 154° Southeast  Level FlightAware Approximate
Sat 08:53:00 PM 16.3662 -87.6028 154° Southeast  Level FlightAware Approximate
Sat 08:54:00 PM 16.2538 -87.5460 154° Southeast  Level FlightAware Approximate
Sat 08:55:00 PM 16.1415 -87.4892 154° Southeast  Level FlightAware Approximate
Sat 08:56:00 PM 16.0291 -87.4325 154° Southeast  Level FlightAware Approximate
Sat 08:57:00 PM 15.9166 -87.3758 154° Southeast  Level FlightAware Approximate
Sat 08:58:00 PM 15.8042 -87.3192 154° Southeast  Level FlightAware Approximate
Sat 08:59:00 PM 15.6918 -87.2627 154° Southeast  Level FlightAware Approximate
Sat 09:00:00 PM 15.5793 -87.2063 154° Southeast  Level FlightAware Approximate
Sat 09:01:00 PM 15.4667 -87.1500 154° Southeast  Level FlightAware Approximate
Sat 09:02:00 PM 15.3535 -87.0952 155° Southeast  Level FlightAware Approximate
Sat 09:03:00 PM 15.2401 -87.0411 155° Southeast  Level FlightAware Approximate
Sat 09:04:00 PM 15.1265 -86.9871 155° Southeast  Level FlightAware Approximate
Sat 09:05:00 PM 15.0130 -86.9331 155° Southeast  Level FlightAware Approximate
Sat 09:06:00 PM 14.8995 -86.8791 155° Southeast  Level FlightAware Approximate
Sat 09:07:00 PM 14.7860 -86.8252 155° Southeast  Level FlightAware Approximate
Sat 09:08:00 PM 14.6724 -86.7714 155° Southeast  Level FlightAware Approximate
Sat 09:09:00 PM 14.5589 -86.7176 155° Southeast  Level FlightAware Approximate
Sat 09:10:00 PM 14.4453 -86.6639 155° Southeast  Level FlightAware Approximate
Sat 09:11:00 PM 14.3317 -86.6103 155° Southeast  Level FlightAware Approximate
Sat 09:12:00 PM 14.2181 -86.5566 155° Southeast  Level FlightAware Approximate
Sat 09:13:00 PM 14.1045 -86.5031 155° Southeast  Level FlightAware Approximate
Sat 09:14:00 PM 13.9909 -86.4496 155° Southeast  Level FlightAware Approximate
Sat 09:15:00 PM 13.8772 -86.3961 155° Southeast  Level FlightAware Approximate
Sat 09:16:00 PM 13.7633 -86.3433 156° South  Level FlightAware Approximate
Sat 09:17:00 PM 13.6494 -86.2908 156° South  Level FlightAware Approximate
Sat 09:18:00 PM 13.5353 -86.2383 156° South  Level FlightAware Approximate
Sat 09:19:00 PM 13.4213 -86.1858 156° South  Level FlightAware Approximate
Sat 09:20:00 PM 13.3073 -86.1334 156° South  Level FlightAware Approximate
Sat 09:21:00 PM 13.1932 -86.0810 156° South  Level FlightAware Approximate
Sat 09:22:00 PM 13.0792 -86.0287 156° South  Level FlightAware Approximate
Sat 09:23:00 PM 12.9651 -85.9765 156° South  Level FlightAware Approximate
Sat 09:24:00 PM 12.8510 -85.9243 156° South  Level FlightAware Approximate
Sat 09:25:00 PM 12.7369 -85.8721 156° South  Level FlightAware Approximate
Sat 09:26:00 PM 12.6229 -85.8200 156° South  Level FlightAware Approximate
Sat 09:27:00 PM 12.5087 -85.7679 156° South  Level FlightAware Approximate
Sat 09:28:00 PM 12.3946 -85.7159 156° South  Level FlightAware Approximate
Sat 09:29:00 PM 12.2805 -85.6639 156° South  Level FlightAware Approximate
Sat 09:30:00 PM 12.1663 -85.6121 156° South  Level FlightAware Approximate
Sat 09:31:00 PM 12.0521 -85.5603 156° South  Level FlightAware Approximate
Sat 09:32:00 PM 11.9379 -85.5086 156° South  Level FlightAware Approximate
Sat 09:33:00 PM 11.8237 -85.4569 156° South  Level FlightAware Approximate
Sat 09:34:00 PM 11.7094 -85.4053 156° South  Level FlightAware Approximate
Sat 09:35:00 PM 11.5952 -85.3537 156° South  Level FlightAware Approximate
Sat 09:36:00 PM 11.4819 -85.3001 154° Southeast  Level FlightAware Approximate
Sat 09:37:00 PM 11.3692 -85.2450 154° Southeast  Level FlightAware Approximate
Sat 09:38:00 PM 11.2566 -85.1901 154° Southeast  Level FlightAware Approximate
Sat 09:39:00 PM 11.1439 -85.1351 154° Southeast  Level FlightAware Approximate
Sat 09:40:00 PM 11.0312 -85.0802 154° Southeast  Level FlightAware Approximate
Sat 09:41:00 PM 10.9185 -85.0254 154° Southeast  Level FlightAware Approximate
Sat 09:42:00 PM 10.8057 -84.9706 154° Southeast  Level FlightAware Approximate
Sat 09:43:00 PM 10.6930 -84.9158 154° Southeast  Level FlightAware Approximate
Sat 09:44:00 PM 10.5803 -84.8611 154° Southeast  Level FlightAware Approximate
Sat 09:45:00 PM 10.4675 -84.8064 155° Southeast  Level FlightAware Approximate
Sat 09:46:00 PM 10.3548 -84.7518 155° Southeast  Level FlightAware Approximate
Sat 09:47:00 PM 10.2416 -84.6980 155° Southeast  Level FlightAware Approximate
Sat 09:48:00 PM 10.1282 -84.6447 155° Southeast  Level FlightAware Approximate
Sat 09:49:00 PM 10.0148 -84.5915 155° Southeast  Level FlightAware Approximate
Sat 09:50:00 PM 9.9014 -84.5383 155° Southeast  Level FlightAware Approximate
Sat 09:51:00 PM 9.7880 -84.4851 155° Southeast  Level FlightAware Approximate
Sat 09:52:00 PM 9.6746 -84.4320 155° Southeast  Level FlightAware Approximate
Sat 09:53:00 PM 9.5612 -84.3789 155° Southeast  Level FlightAware Approximate
Sat 09:54:00 PM 9.4478 -84.3258 155° Southeast  Level FlightAware Approximate
Sat 09:55:00 PM 9.3344 -84.2728 155° Southeast  Level FlightAware Approximate
Sat 09:56:00 PM 9.2209 -84.2197 155° Southeast  Level FlightAware Approximate
Sat 09:57:00 PM 9.1075 -84.1668 155° Southeast  Level FlightAware Approximate
Sat 09:58:00 PM 8.9940 -84.1139 155° Southeast  Level FlightAware Approximate
Sat 09:59:00 PM 8.8806 -84.0610 155° Southeast  Level FlightAware Approximate
Sat 10:00:00 PM 8.7671 -84.0081 155° Southeast  Level FlightAware Approximate
Sat 10:01:00 PM 8.6536 -83.9553 155° Southeast  Level FlightAware Approximate
Sat 10:02:00 PM 8.5401 -83.9025 155° Southeast  Level FlightAware Approximate
Sat 10:03:00 PM 8.4267 -83.8497 155° Southeast  Level FlightAware Approximate
Sat 10:04:00 PM 8.3132 -83.7970 155° Southeast  Level FlightAware Approximate
Sat 10:05:00 PM 8.1996 -83.7443 155° Southeast  Level FlightAware Approximate
Sat 10:06:00 PM 8.0861 -83.6916 155° Southeast  Level FlightAware Approximate
Sat 10:07:00 PM 7.9726 -83.6389 155° Southeast  Level FlightAware Approximate
Sat 10:08:00 PM 7.8591 -83.5863 155° Southeast  Level FlightAware Approximate
Sat 10:09:00 PM 7.7454 -83.5342 156° South  Level FlightAware Approximate
Sat 10:10:00 PM 7.6315 -83.4824 156° South  Level FlightAware Approximate
Sat 10:11:00 PM 7.5176 -83.4307 156° South  Level FlightAware Approximate
Sat 10:12:00 PM 7.4037 -83.3789 156° South  Level FlightAware Approximate
Sat 10:13:00 PM 7.2898 -83.3272 156° South  Level FlightAware Approximate
Sat 10:14:00 PM 7.1759 -83.2755 156° South  Level FlightAware Approximate
Sat 10:15:00 PM 7.0620 -83.2239 156° South  Level FlightAware Approximate
Sat 10:16:00 PM 6.9481 -83.1722 156° South  Level FlightAware Approximate
Sat 10:17:00 PM 6.8341 -83.1206 156° South  Level FlightAware Approximate
Sat 10:18:00 PM 6.7202 -83.0691 156° South  Level FlightAware Approximate
Sat 10:19:00 PM 6.6067 -83.0177 156° South  Level FlightAware Approximate
Sat 10:20:00 PM 6.4932 -82.9663 156° South  Level FlightAware Approximate
Sat 10:21:00 PM 6.3800 -82.9144 146° Southeast  Level FlightAware Approximate
Sat 10:22:00 PM 6.2769 -82.8442 145° Southeast  Level FlightAware Approximate
Sat 10:23:00 PM 6.1744 -82.7731 145° Southeast  Level FlightAware Approximate
Sat 10:24:00 PM 6.0719 -82.7021 145° Southeast  Level FlightAware Approximate
Sat 10:25:00 PM 5.9695 -82.6311 145° Southeast  Level FlightAware Approximate
Sat 10:26:00 PM 5.8670 -82.5601 145° Southeast  Level FlightAware Approximate
Sat 10:27:00 PM 5.7645 -82.4892 145° Southeast  Level FlightAware Approximate
Sat 10:28:00 PM 5.6619 -82.4182 145° Southeast  Level FlightAware Approximate
Sat 10:29:00 PM 5.5594 -82.3473 145° Southeast  Level FlightAware Approximate
Sat 10:30:00 PM 5.4569 -82.2765 145° Southeast  Level FlightAware Approximate
Sat 10:31:00 PM 5.3543 -82.2056 145° Southeast  Level FlightAware Approximate
Sat 10:32:00 PM 5.2518 -82.1348 145° Southeast  Level FlightAware Approximate
Sat 10:33:00 PM 5.1492 -82.0640 145° Southeast  Level FlightAware Approximate
Sat 10:34:00 PM 5.0466 -81.9932 145° Southeast  Level FlightAware Approximate
Sat 10:35:00 PM 4.9441 -81.9224 146° Southeast  Level FlightAware Approximate
Sat 10:36:00 PM 4.8415 -81.8517 146° Southeast  Level FlightAware Approximate
Sat 10:37:00 PM 4.7389 -81.7810 146° Southeast  Level FlightAware Approximate
Sat 10:38:00 PM 4.6363 -81.7103 146° Southeast  Level FlightAware Approximate
Sat 10:39:00 PM 4.5337 -81.6396 146° Southeast  Level FlightAware Approximate
Sat 10:40:00 PM 4.4311 -81.5690 146° Southeast  Level FlightAware Approximate
Sat 10:41:00 PM 4.3285 -81.4983 146° Southeast  Level FlightAware Approximate
Sat 10:42:00 PM 4.2258 -81.4277 146° Southeast  Level FlightAware Approximate
Sat 10:43:00 PM 4.1232 -81.3571 146° Southeast  Level FlightAware Approximate
Sat 10:44:00 PM 4.0205 -81.2865 146° Southeast  Level FlightAware Approximate
Sat 10:45:00 PM 3.9179 -81.2160 146° Southeast  Level FlightAware Approximate
Sat 10:46:00 PM 3.8153 -81.1454 146° Southeast  Level FlightAware Approximate
Sat 10:47:00 PM 3.7126 -81.0749 146° Southeast  Level FlightAware Approximate
Sat 10:48:00 PM 3.6099 -81.0044 146° Southeast  Level FlightAware Approximate
Sat 10:49:00 PM 3.5073 -80.9339 146° Southeast  Level FlightAware Approximate
Sat 10:50:00 PM 3.4046 -80.8634 146° Southeast  Level FlightAware Approximate
Sat 10:51:00 PM 3.3019 -80.7930 146° Southeast  Level FlightAware Approximate
Sat 10:52:00 PM 3.1992 -80.7225 146° Southeast  Level FlightAware Approximate
Sat 10:53:00 PM 3.0965 -80.6521 146° Southeast  Level FlightAware Approximate
Sat 10:54:00 PM 2.9939 -80.5817 146° Southeast  Level FlightAware Approximate
Sat 10:55:00 PM 2.8912 -80.5113 146° Southeast  Level FlightAware Approximate
Sat 10:56:00 PM 2.7885 -80.4409 146° Southeast  Level FlightAware Approximate
Sat 10:57:00 PM 2.6858 -80.3705 146° Southeast  Level FlightAware Approximate
Sat 10:58:00 PM 2.5831 -80.3001 146° Southeast  Level FlightAware Approximate
Sat 10:59:00 PM 2.4803 -80.2298 146° Southeast  Level FlightAware Approximate
Sat 11:00:00 PM 2.3776 -80.1594 146° Southeast  Level FlightAware Approximate
Sat 11:01:00 PM 2.2749 -80.0891 146° Southeast  Level FlightAware Approximate
Sat 11:02:00 PM 2.1722 -80.0187 146° Southeast  Level FlightAware Approximate
Sat 11:03:00 PM 2.0694 -79.9484 146° Southeast  Level FlightAware Approximate
Sat 11:04:00 PM 1.9667 -79.8781 146° Southeast  Level FlightAware Approximate
Sat 11:05:00 PM 1.8640 -79.8078 146° Southeast  Level FlightAware Approximate
Sat 11:06:00 PM 1.7613 -79.7375 146° Southeast  Level FlightAware Approximate
Sat 11:07:00 PM 1.6585 -79.6672 146° Southeast  Level FlightAware Approximate
Sat 11:08:00 PM 1.5558 -79.5969 146° Southeast  Level FlightAware Approximate
Sat 11:09:00 PM 1.4531 -79.5266 146° Southeast  Level FlightAware Approximate
Sat 11:10:00 PM 1.3503 -79.4564 146° Southeast  Level FlightAware Approximate
Sat 11:11:00 PM 1.2477 -79.3873 146° Southeast  Level FlightAware Approximate
Sat 11:12:00 PM 1.1441 -79.3183 146° Southeast  Level FlightAware Approximate
Sat 11:13:00 PM 1.0408 -79.2488 145° Southeast  Level FlightAware Approximate
Sat 11:14:00 PM 0.9385 -79.1779 145° Southeast  Level FlightAware Approximate
Sat 11:15:00 PM 0.8359 -79.1075 147° Southeast  Level FlightAware Approximate
Sat 11:16:00 PM 0.7316 -79.0395 147° Southeast  Level FlightAware Approximate
Sat 11:17:00 PM 0.6274 -78.9715 147° Southeast  Level FlightAware Approximate
Sat 11:18:00 PM 0.5232 -78.9035 147° Southeast  Level FlightAware Approximate
Sat 11:19:00 PM 0.4210 -78.8324 143° Southeast  Level FlightAware Approximate
Sat 11:20:00 PM 0.3208 -78.7587 148° Southeast  Level FlightAware Approximate
Sat 11:21:00 PM 0.2158 -78.6919 148° Southeast  Level FlightAware Approximate
Sat 11:22:00 PM 0.1128 -78.6221 143° Southeast  Level FlightAware Approximate
Sat 11:23:00 PM 0.0137 -78.5470 135° Southeast  Level FlightAware Approximate
Sat 11:24:00 PM -0.0593 -78.4481 117° Southeast  Level FlightAware Approximate
Sat 11:25:00 PM -0.1411 -78.4882 112° Southeast  Level Estimated
Sat 11:26:00 PM -0.1411 -78.4882 112° Southeast  Level Estimated
Sat 11:27:00 PM -0.1411 -78.4882 112° Southeast  Level Estimated
Sat 11:28:00 PM -0.1411 -78.4882 112° Southeast  Level Estimated
Sat 11:29:00 PM -0.1411 -78.4882 112° Southeast  Level Estimated

Login

Don't have an account? Register now (free) for customized features, flight alerts, and more!